DW2363 Weather Reports


time (UTC)temp
F
wind
direction
speed
knots
gust
knots
rain 1hr
in
rain 24hr
in
rain mn
in
humidity
%
barometer
mb
20211205114253 64 319 13.9 20.9 0.00 0.00 0.00 24 1018.6
20211205113754 64 331 13.0 18.2 0.00 0.00 0.00 23 1018.8
20211205113253 65 333 13.0 18.2 0.00 0.00 0.00 22 1018.8
20211205112751 65 335 13.0 18.2 0.00 0.00 0.00 21 1018.7
20211205112251 65 327 12.2 17.4 0.00 0.00 0.00 21 1018.8
20211205111751 65 0 13.0 19.1 0.00 0.00 0.00 21 1018.8
20211205111251 66 321 13.9 19.1 0.00 0.00 0.00 19 1018.8
20211205110751 66 313 14.8 20.0 0.00 0.00 0.00 20 1018.9
20211205110251 66 310 14.8 20.0 0.00 0.00 0.00 19 1018.9
20211205105751 66 319 13.9 18.2 0.00 0.00 0.00 19 1018.9
20211205105251 66 319 13.0 17.4 0.00 0.00 0.00 19 1019.1
20211205104752 66 320 13.0 17.4 0.00 0.00 0.00 19 1019.1
20211205104251 66 323 13.0 17.4 0.00 0.00 0.00 20 1018.9
20211205103751 66 319 13.0 17.4 0.00 0.00 0.00 20 1018.9
20211205103251 66 331 13.0 16.5 0.00 0.00 0.00 20 1018.9
20211205102751 66 327 12.2 16.5 0.00 0.00 0.00 19 1018.9
20211205102251 66 319 11.3 15.6 0.00 0.00 0.00 19 1019.1
20211205101750 66 314 11.3 14.8 0.00 0.00 0.00 19 1019.1
20211205101251 66 325 11.3 14.8 0.00 0.00 0.00 20 1019.2
20211205100751 66 307 12.2 15.6 0.00 0.00 0.00 21 1019.2
20211205100251 66 331 13.0 15.6 0.00 0.00 0.00 21 1019.2
20211205095751 66 322 12.2 14.8 0.00 0.00 0.00 21 1019.3
20211205095252 66 322 11.3 13.9 0.00 0.00 0.00 21 1019.3
20211205094751 66 321 11.3 13.0 0.00 0.00 0.00 21 1019.3
20211205094251 66 323 10.4 13.0 0.00 0.00 0.00 21 1019.4
20211205093749 66 317 9.6 12.2 0.00 0.00 0.00 22 1019.4
20211205093249 65 324 10.4 13.0 0.00 0.00 0.00 22 1019.4
20211205092749 65 309 11.3 13.0 0.00 0.00 0.00 22 1019.4
20211205092249 65 17 12.2 13.0 0.00 0.00 0.00 21 1019.4
20211205091749 65 5 12.2 13.9 0.00 0.00 0.00 22 1019.3
20211205091249 65 327 12.2 13.9 0.00 0.00 0.00 22 1019.4
20211205090749 65 318 13.0 13.9 0.00 0.00 0.00 22 1019.4
20211205090249 65 322 12.2 13.9 0.00 0.00 0.00 21 1019.4
20211205085749 65 320 12.2 13.0 0.00 0.00 0.00 22 1019.4
20211205085248 65 323 13.0 14.8 0.00 0.00 0.00 22 1019.4
20211205084747 65 323 13.0 14.8 0.00 0.00 0.00 22 1019.5
20211205084248 65 321 12.2 14.8 0.00 0.00 0.00 22 1019.5
20211205083745 65 314 13.0 14.8 0.00 0.00 0.00 22 1019.5
20211205083245 65 324 13.0 14.8 0.00 0.00 0.00 22 1019.6
20211205082745 65 323 13.0 14.8 0.00 0.00 0.00 22 1019.6
20211205082245 65 323 13.0 14.8 0.00 0.00 0.00 22 1019.6
20211205081745 65 321 13.9 16.5 0.00 0.00 0.00 22 1019.7
20211205081245 65 323 13.9 16.5 0.00 0.00 0.00 21 1019.7
20211205080745 65 320 13.9 16.5 0.00 0.00 0.00 22 1019.7
20211205080246 65 320 13.9 16.5 0.00 0.00 0.00 22 1019.8
20211205075745 65 321 13.9 15.6 0.00 0.00 0.00 22 1019.8
20211205075244 65 329 13.9 16.5 0.00 0.00 0.00 22 1019.9
20211205074744 65 325 13.9 16.5 0.00 0.00 0.00 21 1019.9
20211205074245 65 323 13.9 16.5 0.00 0.00 0.00 21 1019.9
20211205073745 65 311 14.8 17.4 0.00 0.00 0.00 22 1019.9
20211205073244 66 325 14.8 17.4 0.00 0.00 0.00 22 1019.9
20211205072744 65 318 15.6 17.4 0.00 0.00 0.00 22 1019.9
20211205072245 65 319 14.8 17.4 0.00 0.00 0.00 23 1019.9
20211205071745 65 318 13.0 15.6 0.00 0.00 0.00 25 1019.9
20211205071244 65 322 13.0 13.9 0.00 0.00 0.00 25 1020.0
20211205070745 65 318 12.2 13.9 0.00 0.00 0.00 24 1020.0
20211205070245 65 318 10.4 13.9 0.00 0.00 0.00 25 1020.1
20211205065744 65 325 8.7 12.2 0.00 0.00 0.00 25 1020.0
20211205065243 65 317 7.8 10.4 0.00 0.00 0.00 26 1020.1
20211205064742 65 318 7.8 10.4 0.00 0.00 0.00 25 1020.1
20211205064242 65 333 8.7 10.4 0.00 0.00 0.00 25 1020.1
20211205063742 65 321 9.6 10.4 0.00 0.00 0.00 25 1020.1
20211205063242 65 316 8.7 10.4 0.00 0.00 0.00 25 1020.1
20211205062742 64 317 6.1 8.7 0.00 0.00 0.00 26 1020.2
20211205062240 64 322 5.2 7.0 0.00 0.00 0.00 27 1020.2
20211205061740 65 333 5.2 7.8 0.00 0.00 0.00 27 1020.2
20211205061238 65 346 6.1 7.8 0.00 0.00 0.00 26 1020.3
20211205060738 65 343 6.1 8.7 0.00 0.00 0.00 26 1020.3
20211205060238 65 333 6.1 8.7 0.00 0.00 0.00 26 1020.3
20211205055738 65 335 7.0 9.6 0.00 0.00 0.00 25 1020.3
20211205055238 65 343 7.8 9.6 0.00 0.00 0.00 26 1020.3
20211205054744 65 336 7.0 9.6 0.00 0.00 0.00 26 1020.5
20211205054238 65 5 7.0 9.6 0.00 0.00 0.00 26 1020.5
20211205053738 65 345 7.8 9.6 0.00 0.00 0.00 26 1020.5
20211205053238 65 338 7.8 9.6 0.00 0.00 0.00 26 1020.5
20211205052736 66 342 7.8 9.6 0.00 0.00 0.00 25 1020.3
20211205052236 66 349 7.8 10.4 0.00 0.00 0.00 25 1020.5
20211205051737 67 336 8.7 10.4 0.00 0.00 0.00 24 1020.5
20211205051237 67 329 8.7 10.4 0.00 0.00 0.00 24 1020.3
20211205050736 67 320 8.7 10.4 0.00 0.00 0.00 22 1020.3
20211205050237 67 311 8.7 10.4 0.00 0.00 0.00 22 1020.2
20211205045736 67 325 9.6 10.4 0.00 0.00 0.00 22 1020.2
20211205045236 67 327 9.6 10.4 0.00 0.00 0.00 20 1020.2
20211205044736 66 317 10.4 12.2 0.00 0.00 0.00 20 1020.2
20211205044236 66 323 11.3 12.2 0.00 0.00 0.00 21 1020.1
20211205043735 66 319 11.3 12.2 0.00 0.00 0.00 21 1020.1
20211205043235 66 319 10.4 12.2 0.00 0.00 0.00 21 1020.1
20211205042735 66 320 10.4 11.3 0.00 0.00 0.00 21 1020.1
20211205042235 66 320 9.6 11.3 0.00 0.00 0.00 21 1020.1
20211205041735 66 313 8.7 11.3 0.00 0.00 0.00 21 1020.1
20211205041235 66 330 7.8 12.2 0.00 0.00 0.00 21 1020.1
20211205040735 66 323 8.7 12.2 0.00 0.00 0.00 21 1020.0
20211205040235 66 306 9.6 12.2 0.00 0.00 0.00 21 1019.9
20211205035732 66 315 10.4 13.9 0.00 0.00 0.00 21 1019.8
20211205035232 66 329 11.3 13.9 0.00 0.00 0.00 21 1019.8
20211205034732 66 338 12.2 13.9 0.00 0.00 0.00 21 1019.8
20211205034232 65 327 12.2 13.9 0.00 0.00 0.00 21 1019.8
20211205033732 65 317 12.2 13.9 0.00 0.00 0.00 22 1019.8
20211205033232 65 321 10.4 13.9 0.00 0.00 0.00 23 1019.7
20211205032729 65 318 9.6 12.2 0.00 0.00 0.00 24 1019.7
20211205032230 65 348 8.7 11.3 0.00 0.00 0.00 23 1019.8
20211205031729 65 333 8.7 11.3 0.00 0.00 0.00 23 1019.7
20211205031230 65 332 8.7 11.3 0.00 0.00 0.00 22 1019.7
20211205030730 65 324 7.8 8.7 0.00 0.00 0.00 22 1019.6
20211205030230 65 324 7.8 9.6 0.00 0.00 0.00 22 1019.6
20211205025730 64 329 7.8 10.4 0.00 0.00 0.00 23 1019.6
20211205025229 64 319 7.0 10.4 0.00 0.00 0.00 25 1019.7
20211205024730 64 329 5.2 7.8 0.00 0.00 0.00 26 1019.7
20211205024229 64 339 3.5 5.2 0.00 0.00 0.00 27 1019.6
20211205023728 64 350 3.5 5.2 0.00 0.00 0.00 26 1019.6
20211205023228 64 319 2.6 4.3 0.00 0.00 0.00 25 1019.6
20211205022725 64 309 2.6 4.3 0.00 0.00 0.00 26 1019.5
20211205022226 63 315 3.5 4.3 0.00 0.00 0.00 27 1019.5
20211205021725 63 305 3.5 6.1 0.00 0.00 0.00 31 1019.4
20211205021225 63 317 4.3 7.0 0.00 0.00 0.00 32 1019.4
20211205020726 63 312 4.3 7.0 0.00 0.00 0.00 34 1019.4
20211205020226 63 347 4.3 7.0 0.00 0.00 0.00 38 1019.4
20211205015725 63 340 3.5 5.2 0.00 0.00 0.00 33 1019.3
20211205015226 64 350 2.6 4.3 0.00 0.00 0.00 34 1019.3
20211205014726 64 355 1.7 4.3 0.00 0.00 0.00 31 1019.3
20211205014226 64 256 2.6 4.3 0.00 0.00 0.00 29 1019.1
20211205013726 64 290 3.5 5.2 0.00 0.00 0.00 29 1019.1
20211205013226 63 254 3.5 5.2 0.00 0.00 0.00 29 1019.1
20211205012726 64 259 3.5 5.2 0.00 0.00 0.00 36 1019.1
20211205012225 64 261 1.7 3.5 0.00 0.00 0.00 34 1018.9
20211205011726 64 312 1.7 3.5 0.00 0.00 0.00 30 1019.1
20211205011226 64 336 1.7 3.5 0.00 0.00 0.00 43 1019.1
20211205010726 65 332 0.9 2.6 0.00 0.00 0.00 32 1018.8
20211205010225 65 309 0.9 1.7 0.00 0.00 0.00 32 1018.8
20211205005726 65 309 0.9 1.7 0.00 0.00 0.00 23 1018.9
20211205005225 65 309 0.9 2.6 0.00 0.00 0.00 27 1018.8
20211205004726 65 316 0.9 2.6 0.00 0.00 0.00 33 1018.8
20211205004225 65 338 0.9 2.6 0.00 0.00 0.00 32 1018.8
20211205003723 65 298 0.9 1.7 0.00 0.00 0.00 30 1018.8
20211205003224 65 355 1.7 3.5 0.00 0.00 0.00 24 1018.8
20211205002723 65 355 1.7 3.5 0.00 0.00 0.00 29 1018.8
20211205002223 65 345 0.0 1.7 0.00 0.00 0.00 25 1018.8
20211205001723 65 345 0.0 2.6 0.00 0.00 0.00 29 1018.8
20211205001224 65 345 0.9 2.6 0.00 0.00 0.00 22 1018.8
20211205000724 64 345 1.7 2.6 0.00 0.00 0.00 22 1018.8
20211205000226 64 346 2.6 3.5 0.00 0.00 0.00 24 1018.8
20211204235723 63 339 2.6 4.3 0.00 0.00 0.00 28 1018.8
20211204235223 63 342 3.5 5.2 0.00 0.00 0.00 32 1018.7
20211204234723 62 355 3.5 5.2 0.00 0.00 0.00 34 1018.7
20211204234223 62 355 3.5 5.2 0.00 0.00 0.00 39 1018.7
20211204233724 61 355 4.3 9.6 0.00 0.00 0.00 41 1018.7
20211204233221 61 355 5.2 9.6 0.00 0.00 0.00 46 1018.7
20211204232722 60 350 7.0 10.4 0.00 0.00 0.00 57 1018.7
20211204232221 60 5 7.8 10.4 0.00 0.00 0.00 61 1018.6
20211204231719 60 355 7.0 10.4 0.00 0.00 0.00 61 1018.7
20211204231218 61 355 6.1 7.8 0.00 0.00 0.00 59 1018.7
20211204230717 61 0 6.1 8.7 0.00 0.00 0.00 58 1018.7
20211204230217 61 0 6.1 8.7 0.00 0.00 0.00 58 1018.6
20211204225717 61 355 5.2 8.7 0.00 0.00 0.00 60 1018.7
20211204225217 61 355 5.2 7.0 0.00 0.00 0.00 61 1018.7
20211204224718 61 355 4.3 8.7 0.00 0.00 0.00 60 1018.7
20211204224218 61 350 5.2 8.7 0.00 0.00 0.00 61 1018.7
20211204223719 61 0 6.1 8.7 0.00 0.00 0.00 59 1018.7
20211204223219 61 0 5.2 8.7 0.00 0.00 0.00 61 1018.7
20211204222716 61 355 4.3 7.0 0.00 0.00 0.00 62 1018.7
20211204222215 61 5 4.3 6.1 0.00 0.00 0.00 63 1018.7
20211204221715 61 355 4.3 7.0 0.00 0.00 0.00 63 1018.8
20211204221215 61 0 4.3 7.0 0.00 0.00 0.00 64 1018.8
20211204220715 61 18 5.2 7.0 0.00 0.00 0.00 65 1018.8
20211204220215 61 0 4.3 7.0 0.00 0.00 0.00 64 1018.8
20211204215715 61 13 4.3 6.1 0.00 0.00 0.00 64 1018.9
20211204215215 61 10 4.3 6.1 0.00 0.00 0.00 64 1018.9
20211204214715 61 5 4.3 6.1 0.00 0.00 0.00 64 1018.9
20211204214215 61 340 3.5 6.1 0.00 0.00 0.00 65 1018.9
20211204213712 62 350 2.6 4.3 0.00 0.00 0.00 65 1018.9
20211204213212 62 44 2.6 4.3 0.00 0.00 0.00 65 1019.1
20211204212712 61 5 3.5 4.3 0.00 0.00 0.00 65 1019.1
20211204212213 61 5 3.5 4.3 0.00 0.00 0.00 64 1019.1
20211204211713 62 347 3.5 4.3 0.00 0.00 0.00 64 1019.2
20211204211212 62 19 3.5 4.3 0.00 0.00 0.00 61 1019.2
20211204210712 62 12 2.6 4.3 0.00 0.00 0.00 59 1019.1
20211204210213 63 40 1.7 3.5 0.00 0.00 0.00 60 1019.2
20211204205712 62 5 1.7 3.5 0.00 0.00 0.00 61 1019.2
20211204205212 62 122 1.7 3.5 0.00 0.00 0.00 65 1019.2
20211204204713 62 93 1.7 3.5 0.00 0.00 0.00 63 1019.3
20211204204213 62 62 1.7 3.5 0.00 0.00 0.00 60 1019.3
20211204203710 62 21 0.9 4.3 0.00 0.00 0.00 61 1019.3
20211204203210 63 138 0.9 4.3 0.00 0.00 0.00 64 1019.4
20211204202710 63 159 1.7 4.3 0.00 0.00 0.00 63 1019.4
20211204202210 63 209 1.7 4.3 0.00 0.00 0.00 63 1019.5
20211204201710 63 338 1.7 4.3 0.00 0.00 0.00 58 1019.5
20211204201209 63 148 2.6 4.3 0.00 0.00 0.00 63 1019.6
20211204200709 62 34 2.6 4.3 0.00 0.00 0.00 59 1019.7
20211204200209 62 84 1.7 3.5 0.00 0.00 0.00 62 1019.7
20211204195708 62 76 1.7 3.5 0.00 0.00 0.00 65 1019.8
20211204195208 62 60 2.6 3.5 0.00 0.00 0.00 61 1019.9
20211204194708 61 71 2.6 5.2 0.00 0.00 0.00 63 1020.0
20211204194209 61 68 3.5 5.2 0.00 0.00 0.00 60 1020.1
20211204193708 62 38 3.5 5.2 0.00 0.00 0.00 60 1020.1
20211204193209 62 55 2.6 7.0 0.00 0.00 0.00 59 1020.0
20211204192708 62 54 2.6 5.2 0.00 0.00 0.00 58 1020.0
20211204192206 62 54 2.6 4.3 0.00 0.00 0.00 55 1020.1
20211204191707 62 55 2.6 4.3 0.00 0.00 0.00 58 1020.2
20211204191206 62 38 2.6 4.3 0.00 0.00 0.00 61 1020.2
20211204190706 61 49 1.7 4.3 0.00 0.00 0.00 62 1020.3
20211204190206 60 47 2.6 6.1 0.00 0.00 0.00 57 1020.5
20211204185706 61 10 3.5 6.1 0.00 0.00 0.00 60 1020.5
20211204185206 62 12 1.7 5.2 0.00 0.00 0.00 58 1020.6
20211204184706 62 47 1.7 4.3 0.00 0.00 0.00 58 1020.7
20211204184207 62 146 2.6 4.3 0.00 0.00 0.00 62 1020.8
20211204183707 62 125 2.6 4.3 0.00 0.00 0.00 49 1020.7
20211204183206 61 56 2.6 4.3 0.00 0.00 0.00 52 1020.7
20211204182706 61 44 2.6 4.3 0.00 0.00 0.00 53 1020.7
20211204182206 61 27 2.6 4.3 0.00 0.00 0.00 51 1020.7
20211204181707 61 55 2.6 5.2 0.00 0.00 0.00 54 1020.7
20211204181206 61 26 2.6 5.2 0.00 0.00 0.00 52 1020.8
20211204180706 62 53 3.5 5.2 0.00 0.00 0.00 50 1020.8
20211204180207 63 59 3.5 5.2 0.00 0.00 0.00 47 1020.8
20211204175707 63 38 3.5 5.2 0.00 0.00 0.00 42 1020.8
20211204175207 63 33 4.3 7.0 0.00 0.00 0.00 41 1020.7
20211204174706 62 44 5.2 7.0 0.00 0.00 0.00 40 1020.7
20211204174206 62 31 6.1 7.8 0.00 0.00 0.00 41 1020.7
20211204173706 61 20 7.0 8.7 0.00 0.00 0.00 44 1020.5
20211204173206 60 23 7.0 8.7 0.00 0.00 0.00 43 1020.6
20211204172707 61 32 6.1 8.7 0.00 0.00 0.00 44 1020.5
20211204172207 60 20 7.0 8.7 0.00 0.00 0.00 46 1020.3
20211204171707 60 14 7.8 8.7 0.00 0.00 0.00 46 1020.2
20211204171206 59 32 7.8 8.7 0.00 0.00 0.00 46 1020.2
20211204170706 58 19 7.8 8.7 0.00 0.00 0.00 50 1020.2
20211204170206 58 21 7.0 8.7 0.00 0.00 0.00 52 1020.1
20211204165704 58 26 7.0 8.7 0.00 0.00 0.00 51 1020.2
20211204165202 58 36 6.1 7.8 0.00 0.00 0.00 50 1020.2
20211204164703 58 32 7.0 8.7 0.00 0.00 0.00 52 1020.1
20211204164202 57 33 7.8 8.7 0.00 0.00 0.00 53 1020.1
20211204163702 57 32 7.8 8.7 0.00 0.00 0.00 53 1020.0
20211204163202 57 25 7.8 9.6 0.00 0.00 0.00 53 1020.0
20211204162702 57 22 7.8 9.6 0.00 0.00 0.00 52 1019.9
20211204162202 57 19 7.8 8.7 0.00 0.00 0.00 52 1019.9
20211204161701 57 5 7.8 8.7 0.00 0.00 0.00 47 1019.9
20211204161202 57 15 7.8 8.7 0.00 0.00 0.00 49 1019.8
20211204160702 56 11 7.8 8.7 0.00 0.00 0.00 48 1019.7
20211204160202 56 11 7.8 8.7 0.00 0.00 0.00 53 1019.8
20211204155702 56 15 7.0 7.8 0.00 0.00 0.00 64 1019.8
20211204155200 56 19 7.0 7.8 0.00 0.00 0.00 55 1019.6
20211204154700 56 9 7.8 8.7 0.00 0.00 0.00 65 1019.6
20211204154200 56 10 7.8 8.7 0.00 0.00 0.00 61 1019.6
20211204153700 56 13 7.8 7.8 0.00 0.00 0.00 60 1019.5
20211204153200 55 17 7.8 7.8 0.00 0.00 0.00 65 1019.5
20211204152658 55 13 7.0 7.8 0.00 0.00 0.00 70 1019.4
20211204152158 55 17 5.2 7.8 0.00 0.00 0.00 72 1019.5
20211204151658 55 22 5.2 7.0 0.00 0.00 0.00 70 1019.4
20211204151158 55 28 5.2 7.0 0.00 0.00 0.00 68 1019.4
20211204150658 55 26 7.0 7.8 0.00 0.00 0.00 67 1019.4
20211204150200 55 14 7.0 7.8 0.00 0.00 0.00 65 1019.2
20211204145658 55 16 7.0 7.8 0.00 0.00 0.00 65 1019.2
20211204145158 56 12 7.0 7.8 0.00 0.00 0.00 65 1019.2
20211204144658 56 5 7.0 7.8 0.00 0.00 0.00 55 1019.1
20211204144157 56 13 7.0 7.8 0.00 0.00 0.00 53 1019.1
20211204143656 55 13 7.0 7.8 0.00 0.00 0.00 58 1018.9
20211204143156 55 5 7.8 8.7 0.00 0.00 0.00 64 1019.1
20211204142656 55 10 7.0 8.7 0.00 0.00 0.00 71 1018.9
20211204142156 55 11 7.0 7.8 0.00 0.00 0.00 72 1018.9
20211204141656 55 17 7.0 7.8 0.00 0.00 0.00 74 1018.9
20211204141156 55 16 7.0 7.8 0.00 0.00 0.00 70 1018.9
20211204140656 55 13 7.8 8.7 0.00 0.00 0.00 72 1018.9
20211204140155 55 15 7.8 8.7 0.00 0.00 0.00 71 1018.9
20211204135655 55 9 7.8 8.7 0.00 0.00 0.00 72 1018.9
20211204135155 55 14 7.8 8.7 0.00 0.00 0.00 72 1018.9
20211204134655 55 15 7.8 8.7 0.00 0.00 0.00 68 1018.8
20211204134155 55 19 7.0 7.8 0.00 0.00 0.00 67 1018.8
20211204133654 55 30 7.0 7.8 0.00 0.00 0.00 65 1018.8
20211204133155 56 45 7.0 7.8 0.00 0.00 0.00 69 1018.7
20211204132655 55 61 6.1 7.8 0.00 0.00 0.00 69 1018.7
20211204132152 55 43 6.1 7.8 0.00 0.00 0.00 69 1018.7
20211204131652 55 58 6.1 7.8 0.00 0.00 0.00 64 1018.7
20211204131149 55 77 6.1 7.8 0.00 0.00 0.00 68 1018.6
20211204130650 56 53 5.2 7.8 0.00 0.00 0.00 69 1018.6
20211204130147 55 73 6.1 7.8 0.00 0.00 0.00 64 1018.7
20211204125648 55 53 7.0 7.8 0.00 0.00 0.00 69 1018.6
20211204125148 54 55 7.0 9.6 0.00 0.00 0.00 70 1018.6
20211204124648 54 40 7.8 9.6 0.00 0.00 0.00 69 1018.5
20211204124148 54 74 8.7 10.4 0.00 0.00 0.00 68 1018.5
20211204123648 54 54 8.7 10.4 0.00 0.00 0.00 67 1018.5
20211204123147 54 74 7.8 10.4 0.00 0.00 0.00 68 1018.5
20211204122648 54 68 7.8 10.4 0.00 0.00 0.00 70 1018.5
20211204122148 54 76 7.0 10.4 0.00 0.00 0.00 69 1018.5
20211204121647 54 71 6.1 9.6 0.00 0.00 0.00 65 1018.6
20211204121148 54 49 6.1 8.7 0.00 0.00 0.00 64 1018.6
20211204120648 55 81 7.0 8.7 0.00 0.00 0.00 63 1018.6
20211204120148 56 80 7.8 10.4 0.00 0.00 0.00 57 1018.5
20211204115648 56 68 8.7 10.4 0.00 0.00 0.00 55 1018.5
20211204115145 56 60 7.8 10.4 0.00 0.00 0.00 54 1018.5